Time;durP1;ratioP1;P1;durP2;ratioP2;P2;SDS_P1;SDS_P2;PMS_P1;PMS_P2;Temp;Humidity;BMP_temperature;BMP_pressure;BME280_temperature;BME280_humidity;BME280_pressure;Samples;Min_cycle;Max_cycle;Signal;HPM_P1;HPM_P2
2022/05/26 00:00:26;;;;;;;;;;;21.30;80.20;;;;;;5054999;28;20408;-90
2022/05/26 00:02:51;;;;;;;;;;;21.40;80.00;;;;;;5054590;28;19937;-91
2022/05/26 00:05:18;;;;;;;;;;;21.30;79.80;;;;;;5054618;28;20409;-90
2022/05/26 00:07:43;;;;;;;;;;;21.30;79.70;;;;;;5054520;28;19974;-90
2022/05/26 00:10:09;;;;;;;;;;;21.30;79.70;;;;;;5054550;28;20030;-90
2022/05/26 00:12:35;;;;;;;;;;;21.30;79.60;;;;;;5054464;28;20056;-90
2022/05/26 00:15:01;;;;;;;;;;;21.30;79.80;;;;;;5054490;28;19947;-90
2022/05/26 00:17:28;;;;;;;;;;;21.20;79.80;;;;;;5054428;28;19945;-90
2022/05/26 00:19:54;;;;;;;;;;;21.20;79.90;;;;;;5054721;28;19953;-90
2022/05/26 00:22:20;;;;;;;;;;;21.20;79.80;;;;;;5054216;28;19937;-90
2022/05/26 00:24:46;;;;;;;;;;;21.20;79.70;;;;;;5054237;28;19995;-91
2022/05/26 00:27:12;;;;;;;;;;;21.20;79.70;;;;;;5054162;28;20401;-90
2022/05/26 00:29:38;;;;;;;;;;;21.20;79.60;;;;;;5054406;28;19969;-90
2022/05/26 00:32:03;;;;;;;;;;;21.30;79.60;;;;;;5053980;28;20433;-90
2022/05/26 00:34:29;;;;;;;;;;;21.20;79.70;;;;;;5053785;28;19964;-90
2022/05/26 00:36:54;;;;;;;;;;;21.10;79.90;;;;;;5053986;28;19987;-91
2022/05/26 00:39:24;;;;;;;;;;;21.10;79.90;;;;;;5053907;28;19953;-90
2022/05/26 00:41:52;;;;;;;;;;;21.10;80.10;;;;;;5054209;28;19972;-90
2022/05/26 00:44:18;;;;;;;;;;;21.00;80.30;;;;;;5053878;28;20393;-90
2022/05/26 00:46:50;;;;;;;;;;;21.00;80.50;;;;;;5054066;28;20031;-90
2022/05/26 00:49:19;;;;;;;;;;;20.90;80.80;;;;;;5053762;28;19971;-90
2022/05/26 00:51:45;;;;;;;;;;;20.90;81.10;;;;;;5053945;28;19940;-91
2022/05/26 00:54:13;;;;;;;;;;;20.90;81.50;;;;;;5053622;28;19951;-91
2022/05/26 00:56:44;;;;;;;;;;;20.90;81.60;;;;;;5053654;28;19944;-91
2022/05/26 00:59:16;;;;;;;;;;;20.80;81.60;;;;;;5052959;28;20430;-90
2022/05/26 01:01:42;;;;;;;;;;;20.80;81.90;;;;;;5053537;28;19938;-90
2022/05/26 01:04:12;;;;;;;;;;;20.70;82.20;;;;;;5053533;28;20095;-90
2022/05/26 01:06:46;;;;;;;;;;;20.60;82.60;;;;;;5053689;28;19955;-91
2022/05/26 01:09:12;;;;;;;;;;;20.50;83.00;;;;;;5053416;28;20411;-90
2022/05/26 01:11:39;;;;;;;;;;;20.40;83.30;;;;;;5053485;28;19950;-91
2022/05/26 01:14:10;;;;;;;;;;;20.40;83.60;;;;;;5053335;28;19960;-90
2022/05/26 01:16:54;;;;;;;;;;;20.30;83.70;;;;;;5053331;28;19940;-90
2022/05/26 01:19:29;;;;;;;;;;;20.30;83.90;;;;;;5053247;28;19949;-90
2022/05/26 01:22:00;;;;;;;;;;;20.30;83.80;;;;;;5071635;28;19954;-90
2022/05/26 01:24:45;;;;;;;;;;;20.30;83.80;;;;;;5073219;28;19940;-90
2022/05/26 01:27:20;;;;;;;;;;;20.30;83.80;;;;;;5073247;28;19939;-90
2022/05/26 01:30:04;;;;;;;;;;;20.30;84.10;;;;;;5073194;28;19949;-90
2022/05/26 01:32:29;;;;;;;;;;;20.20;84.30;;;;;;5072910;28;19990;-90
2022/05/26 01:35:04;;;;;;;;;;;20.20;84.40;;;;;;5073049;28;20392;-90
2022/05/26 01:37:42;;;;;;;;;;;20.20;84.30;;;;;;5072774;28;19953;-90
2022/05/26 01:40:11;;;;;;;;;;;20.10;84.50;;;;;;5073069;28;19943;-90
2022/05/26 01:42:36;;;;;;;;;;;20.10;84.60;;;;;;5071657;28;20037;-90
2022/05/26 01:45:11;;;;;;;;;;;20.00;84.80;;;;;;5073078;28;19937;-91
2022/05/26 01:47:54;;;;;;;;;;;19.90;85.10;;;;;;5072963;28;19993;-90
2022/05/26 01:50:20;;;;;;;;;;;19.90;85.30;;;;;;5073013;28;20052;-90
2022/05/26 01:53:01;;;;;;;;;;;19.90;85.00;;;;;;5072867;28;20039;-90
2022/05/26 01:55:34;;;;;;;;;;;20.00;84.80;;;;;;5072929;28;20405;-90
2022/05/26 01:58:08;;;;;;;;;;;19.90;84.90;;;;;;5072969;28;19935;-90
2022/05/26 02:00:34;;;;;;;;;;;19.80;85.10;;;;;;5072897;28;19978;-91
2022/05/26 02:03:01;;;;;;;;;;;19.90;85.40;;;;;;5072307;28;20345;-91
2022/05/26 02:05:28;;;;;;;;;;;20.00;85.50;;;;;;5072864;28;20361;-90
2022/05/26 02:08:17;;;;;;;;;;;20.00;85.50;;;;;;5072873;28;19946;-90
2022/05/26 02:10:49;;;;;;;;;;;20.00;85.70;;;;;;5064318;28;20408;-90
2022/05/26 02:13:33;;;;;;;;;;;20.10;85.70;;;;;;5076725;28;19969;-90
2022/05/26 02:16:20;;;;;;;;;;;20.30;86.20;;;;;;5076739;28;20027;-90
2022/05/26 02:18:59;;;;;;;;;;;20.30;85.80;;;;;;5076693;28;19944;-91
2022/05/26 02:21:33;;;;;;;;;;;20.30;85.40;;;;;;5076587;28;19950;-90
2022/05/26 02:24:06;;;;;;;;;;;20.40;84.90;;;;;;5076515;28;20006;-90
2022/05/26 02:26:32;;;;;;;;;;;20.30;84.80;;;;;;5075184;28;20307;-90
2022/05/26 02:31:43;;;;;;;;;;;20.40;84.70;;;;;;5076239;28;20018;-90
2022/05/26 02:34:09;;;;;;;;;;;20.40;84.60;;;;;;5058134;28;20042;-90
2022/05/26 02:36:36;;;;;;;;;;;20.50;84.50;;;;;;5056327;28;20406;-90
2022/05/26 02:39:02;;;;;;;;;;;20.50;84.20;;;;;;5056230;28;19941;-90
2022/05/26 02:41:29;;;;;;;;;;;20.50;84.10;;;;;;5056198;28;19978;-90
2022/05/26 02:43:54;;;;;;;;;;;20.50;83.90;;;;;;5056171;28;19943;-90
2022/05/26 02:46:38;;;;;;;;;;;20.50;83.70;;;;;;5056132;28;19994;-90
2022/05/26 02:49:22;;;;;;;;;;;20.50;83.80;;;;;;5056061;28;20261;-90
2022/05/26 02:52:03;;;;;;;;;;;20.50;83.80;;;;;;5056039;28;19939;-90
2022/05/26 02:54:31;;;;;;;;;;;20.50;83.80;;;;;;5055910;28;19958;-90
2022/05/26 02:56:57;;;;;;;;;;;20.50;83.90;;;;;;5055925;28;20401;-90
2022/05/26 02:59:27;;;;;;;;;;;20.60;83.80;;;;;;5055892;28;19988;-90
2022/05/26 03:02:22;;;;;;;;;;;20.70;83.80;;;;;;5055828;28;20309;-90
2022/05/26 03:04:54;;;;;;;;;;;20.80;83.60;;;;;;5022555;28;19973;-90
2022/05/26 03:07:22;;;;;;;;;;;20.80;83.40;;;;;;5035826;28;19936;-90
2022/05/26 03:09:48;;;;;;;;;;;20.80;83.20;;;;;;5035850;28;19938;-90
2022/05/26 03:12:28;;;;;;;;;;;20.90;82.80;;;;;;5035758;28;19941;-90
2022/05/26 03:14:53;;;;;;;;;;;20.90;82.70;;;;;;5035942;28;19946;-90
2022/05/26 03:17:19;;;;;;;;;;;20.90;82.60;;;;;;5035886;28;20442;-90
2022/05/26 03:19:45;;;;;;;;;;;21.00;82.60;;;;;;5035567;28;19945;-90
2022/05/26 03:22:10;;;;;;;;;;;21.00;82.50;;;;;;5034935;28;19954;-90
2022/05/26 03:24:36;;;;;;;;;;;21.00;82.40;;;;;;5035431;28;19960;-90
2022/05/26 03:27:02;;;;;;;;;;;21.00;82.30;;;;;;5046643;28;19971;-90
2022/05/26 03:29:27;;;;;;;;;;;21.00;82.30;;;;;;5075344;28;19943;-90
2022/05/26 03:31:53;;;;;;;;;;;21.00;82.40;;;;;;5075097;28;20000;-90
2022/05/26 03:42:31;;;;;;;;;;;20.90;82.50;;;;;;5075044;28;19947;-90
2022/05/26 03:44:57;;;;;;;;;;;20.80;82.50;;;;;;5074994;28;19943;-90
2022/05/26 03:47:22;;;;;;;;;;;20.90;82.50;;;;;;5074984;28;19945;-90
2022/05/26 03:49:49;;;;;;;;;;;20.80;82.60;;;;;;5074910;28;19941;-90
2022/05/26 03:52:14;;;;;;;;;;;20.90;82.40;;;;;;5075126;28;19947;-90
2022/05/26 03:54:40;;;;;;;;;;;20.80;82.70;;;;;;5074828;28;19962;-90
2022/05/26 03:57:06;;;;;;;;;;;20.80;83.30;;;;;;5068887;28;19942;-90
2022/05/26 03:59:33;;;;;;;;;;;20.80;83.40;;;;;;5054834;28;19945;-90
2022/05/26 04:01:59;;;;;;;;;;;20.80;83.20;;;;;;5054750;28;19946;-90
2022/05/26 04:04:24;;;;;;;;;;;20.90;82.90;;;;;;5054720;28;20023;-90
2022/05/26 04:06:50;;;;;;;;;;;20.90;82.70;;;;;;5054662;28;19948;-90
2022/05/26 04:09:16;;;;;;;;;;;21.00;82.70;;;;;;5055216;28;19938;-90
2022/05/26 04:11:41;;;;;;;;;;;20.90;82.60;;;;;;5054535;28;20300;-90
2022/05/26 04:14:07;;;;;;;;;;;20.90;82.60;;;;;;5054430;28;19963;-90
2022/05/26 04:16:32;;;;;;;;;;;20.90;82.40;;;;;;5054454;28;20414;-90
2022/05/26 04:18:58;;;;;;;;;;;21.00;82.40;;;;;;5054394;28;19944;-90
2022/05/26 04:21:23;;;;;;;;;;;20.90;82.20;;;;;;5054335;28;20028;-90
2022/05/26 04:23:49;;;;;;;;;;;20.90;82.10;;;;;;5054241;28;20001;-90
2022/05/26 04:26:15;;;;;;;;;;;20.90;82.20;;;;;;5054874;28;20035;-90
2022/05/26 04:28:40;;;;;;;;;;;20.90;82.20;;;;;;5054235;28;20086;-90
2022/05/26 04:31:06;;;;;;;;;;;21.00;82.20;;;;;;5054130;28;19999;-90
2022/05/26 04:33:32;;;;;;;;;;;21.10;82.00;;;;;;5052849;28;19990;-91
2022/05/26 04:35:58;;;;;;;;;;;21.10;81.80;;;;;;5054119;28;19984;-90
2022/05/26 04:38:24;;;;;;;;;;;21.20;81.70;;;;;;5054000;28;19937;-90
2022/05/26 04:40:59;;;;;;;;;;;21.20;81.70;;;;;;5053988;28;19942;-90
2022/05/26 04:43:26;;;;;;;;;;;21.20;81.60;;;;;;5053886;28;19954;-90
2022/05/26 04:45:52;;;;;;;;;;;21.30;81.50;;;;;;5053846;28;19976;-90
2022/05/26 04:48:21;;;;;;;;;;;21.30;81.10;;;;;;5053799;28;19940;-90
2022/05/26 04:50:46;;;;;;;;;;;21.30;80.80;;;;;;5053664;28;19942;-90
2022/05/26 04:53:12;;;;;;;;;;;21.40;80.70;;;;;;5053562;28;20322;-90
2022/05/26 04:55:37;;;;;;;;;;;21.30;80.70;;;;;;5053535;28;20371;-90
2022/05/26 04:58:03;;;;;;;;;;;21.30;80.60;;;;;;5052905;28;19957;-90
2022/05/26 05:00:29;;;;;;;;;;;21.40;80.60;;;;;;5051694;28;19954;-89
2022/05/26 05:02:54;;;;;;;;;;;21.40;80.80;;;;;;5052471;28;19955;-90
2022/05/26 05:05:20;;;;;;;;;;;21.50;81.10;;;;;;5053541;28;19952;-90
2022/05/26 05:07:45;;;;;;;;;;;21.60;81.00;;;;;;5053022;28;19953;-91
2022/05/26 05:10:11;;;;;;;;;;;21.60;81.10;;;;;;5053458;28;19947;-90
2022/05/26 05:12:37;;;;;;;;;;;21.60;81.00;;;;;;5053065;28;19947;-90
2022/05/26 05:15:03;;;;;;;;;;;21.70;81.00;;;;;;5053360;28;19951;-90
2022/05/26 05:17:29;;;;;;;;;;;21.70;81.00;;;;;;5053020;28;19945;-90
2022/05/26 05:19:54;;;;;;;;;;;21.80;81.00;;;;;;5052878;28;19989;-90
2022/05/26 05:22:27;;;;;;;;;;;21.80;81.10;;;;;;5053227;28;19947;-90
2022/05/26 05:24:57;;;;;;;;;;;21.80;80.90;;;;;;5053191;28;19949;-90
2022/05/26 05:27:22;;;;;;;;;;;21.90;80.80;;;;;;5052364;28;20310;-90
2022/05/26 05:29:49;;;;;;;;;;;22.00;80.80;;;;;;5051930;28;19950;-90
2022/05/26 05:32:16;;;;;;;;;;;22.00;80.40;;;;;;5064786;22;20321;-90
2022/05/26 05:34:48;;;;;;;;;;;22.00;80.40;;;;;;5057481;28;19968;-90
2022/05/26 05:37:13;;;;;;;;;;;22.10;80.20;;;;;;5062770;28;19941;-90
2022/05/26 05:39:39;;;;;;;;;;;22.20;79.90;;;;;;5070668;28;19957;-90
2022/05/26 05:42:05;;;;;;;;;;;22.30;79.60;;;;;;5070480;28;19938;-91
2022/05/26 05:44:31;;;;;;;;;;;22.30;79.00;;;;;;5068254;28;20381;-91
2022/05/26 05:47:01;;;;;;;;;;;22.40;78.20;;;;;;5062487;28;20310;-90
2022/05/26 05:49:28;;;;;;;;;;;22.40;78.20;;;;;;5061974;28;19986;-90
2022/05/26 05:51:54;;;;;;;;;;;22.50;77.90;;;;;;5064780;28;20031;-91
2022/05/26 05:54:20;;;;;;;;;;;22.50;77.50;;;;;;5065990;28;20487;-91
2022/05/26 05:56:46;;;;;;;;;;;22.70;77.00;;;;;;5069115;28;19948;-91
2022/05/26 05:59:12;;;;;;;;;;;22.80;76.50;;;;;;5070005;28;19950;-90
2022/05/26 06:01:37;;;;;;;;;;;22.80;76.20;;;;;;5065363;28;20000;-90
2022/05/26 06:04:03;;;;;;;;;;;22.90;75.90;;;;;;5076864;28;19968;-89
2022/05/26 06:06:34;;;;;;;;;;;22.90;75.80;;;;;;5063433;28;20056;-90
2022/05/26 06:08:59;;;;;;;;;;;22.90;75.50;;;;;;5069934;28;20422;-89
2022/05/26 06:11:25;;;;;;;;;;;22.90;74.80;;;;;;5072797;28;19950;-89
2022/05/26 06:13:50;;;;;;;;;;;22.90;74.80;;;;;;5066440;28;19948;-90
2022/05/26 06:16:16;;;;;;;;;;;22.90;74.60;;;;;;5065285;28;19940;-89
2022/05/26 06:18:41;;;;;;;;;;;23.00;74.50;;;;;;5072693;28;19949;-90
2022/05/26 06:21:07;;;;;;;;;;;23.10;74.20;;;;;;5071125;28;19953;-90
2022/05/26 06:23:33;;;;;;;;;;;23.10;74.00;;;;;;5076592;28;20055;-90
2022/05/26 06:25:58;;;;;;;;;;;23.30;73.50;;;;;;5071893;28;20020;-89
2022/05/26 06:31:09;;;;;;;;;;;23.40;73.10;;;;;;5063029;28;20348;-89
2022/05/26 06:39:04;;;;;;;;;;;23.80;71.90;;;;;;5067564;28;19968;-90
2022/05/26 06:44:13;;;;;;;;;;;24.00;71.20;;;;;;5065453;28;20081;-90
2022/05/26 06:46:39;;;;;;;;;;;24.00;71.00;;;;;;5066044;28;20045;-91
2022/05/26 06:49:04;;;;;;;;;;;24.20;70.90;;;;;;5070770;28;20380;-90
2022/05/26 06:51:30;;;;;;;;;;;24.30;70.50;;;;;;5070841;28;19942;-90
2022/05/26 06:53:56;;;;;;;;;;;24.30;70.50;;;;;;5072195;28;19960;-91
2022/05/26 06:56:22;;;;;;;;;;;24.50;69.80;;;;;;5065133;28;20406;-91
2022/05/26 06:58:47;;;;;;;;;;;24.60;69.60;;;;;;5060357;28;19952;-91
2022/05/26 07:01:14;;;;;;;;;;;24.70;69.00;;;;;;5067330;28;20039;-90
2022/05/26 07:03:41;;;;;;;;;;;24.70;69.40;;;;;;5073201;28;19989;-90
2022/05/26 07:06:17;;;;;;;;;;;24.70;68.80;;;;;;5070408;28;19968;-90
2022/05/26 07:08:43;;;;;;;;;;;24.80;68.90;;;;;;5072195;28;20431;-89
2022/05/26 07:11:09;;;;;;;;;;;24.90;69.40;;;;;;5073124;28;19955;-90
2022/05/26 07:13:36;;;;;;;;;;;24.80;69.30;;;;;;5073394;28;19964;-90
2022/05/26 07:16:01;;;;;;;;;;;24.80;68.70;;;;;;5071124;28;19954;-90
2022/05/26 07:18:27;;;;;;;;;;;24.70;69.10;;;;;;5075215;28;19952;-91
2022/05/26 07:20:53;;;;;;;;;;;24.60;69.20;;;;;;5076380;28;20032;-91
2022/05/26 07:23:18;;;;;;;;;;;24.50;69.70;;;;;;5069382;28;19979;-91
2022/05/26 07:25:44;;;;;;;;;;;24.50;69.70;;;;;;5071184;28;19963;-91
2022/05/26 07:28:12;;;;;;;;;;;24.60;69.90;;;;;;5061935;28;19958;-92
2022/05/26 07:30:38;;;;;;;;;;;24.70;69.60;;;;;;5063974;28;20298;-92
2022/05/26 07:33:04;;;;;;;;;;;24.80;69.00;;;;;;5070371;28;20014;-92
2022/05/26 07:35:29;;;;;;;;;;;25.10;68.50;;;;;;5070684;28;20322;-92
2022/05/26 07:43:24;;;;;;;;;;;25.30;68.90;;;;;;5065849;28;20420;-91
2022/05/26 07:45:50;;;;;;;;;;;25.40;69.10;;;;;;5073685;28;19950;-92
2022/05/26 07:48:16;;;;;;;;;;;25.60;68.50;;;;;;5073277;28;19951;-92
2022/05/26 07:50:41;;;;;;;;;;;25.70;68.50;;;;;;5071272;28;19958;-91
2022/05/26 07:53:07;;;;;;;;;;;25.80;68.20;;;;;;5071577;28;19962;-92
2022/05/26 07:55:33;;;;;;;;;;;26.00;67.70;;;;;;5068478;28;20044;-91
2022/05/26 07:57:59;;;;;;;;;;;26.20;67.10;;;;;;5067861;28;20410;-92
2022/05/26 08:00:25;;;;;;;;;;;26.20;66.40;;;;;;5068483;28;20313;-92
2022/05/26 08:02:50;;;;;;;;;;;26.20;66.40;;;;;;5062985;28;19949;-92
2022/05/26 08:05:16;;;;;;;;;;;26.20;67.30;;;;;;5091171;28;19942;-92
2022/05/26 08:07:43;;;;;;;;;;;26.30;66.50;;;;;;5072611;28;19961;-92
2022/05/26 08:10:09;;;;;;;;;;;26.30;65.20;;;;;;5066033;28;20018;-92
2022/05/26 08:12:34;;;;;;;;;;;26.30;65.70;;;;;;5069929;28;19948;-91
2022/05/26 08:15:00;;;;;;;;;;;26.10;65.70;;;;;;5072045;28;19965;-92
2022/05/26 08:17:26;;;;;;;;;;;25.90;66.50;;;;;;5071477;28;19945;-91
2022/05/26 08:19:52;;;;;;;;;;;25.60;68.00;;;;;;5065626;28;19953;-91
2022/05/26 08:22:18;;;;;;;;;;;25.60;67.70;;;;;;5064802;28;19986;-92
2022/05/26 08:24:53;;;;;;;;;;;25.50;67.40;;;;;;5067746;28;19997;-91
2022/05/26 08:27:19;;;;;;;;;;;25.50;68.60;;;;;;5072292;28;20431;-91
2022/05/26 08:29:44;;;;;;;;;;;25.70;68.30;;;;;;5068682;28;19943;-92
2022/05/26 08:32:10;;;;;;;;;;;25.80;66.70;;;;;;5064960;28;19975;-91
2022/05/26 08:34:35;;;;;;;;;;;25.90;66.10;;;;;;5062634;28;19958;-91
2022/05/26 08:37:03;;;;;;;;;;;25.80;65.50;;;;;;5065485;28;20000;-92
2022/05/26 08:39:32;;;;;;;;;;;25.80;67.00;;;;;;5064178;28;19952;-91
2022/05/26 08:41:58;;;;;;;;;;;25.90;67.10;;;;;;5060600;28;20332;-92
2022/05/26 08:44:26;;;;;;;;;;;26.00;66.20;;;;;;5067871;28;20023;-92
2022/05/26 08:47:01;;;;;;;;;;;25.90;66.70;;;;;;5071987;28;20355;-92
2022/05/26 08:49:40;;;;;;;;;;;25.90;66.80;;;;;;5063948;28;19949;-91
2022/05/26 08:52:06;;;;;;;;;;;25.90;67.10;;;;;;5064314;28;20467;-92
2022/05/26 08:54:35;;;;;;;;;;;25.90;67.20;;;;;;5067937;28;20059;-93
2022/05/26 08:57:01;;;;;;;;;;;25.90;66.90;;;;;;5068499;28;19953;-91
2022/05/26 08:59:33;;;;;;;;;;;25.90;67.40;;;;;;5072121;28;19951;-91
2022/05/26 09:02:00;;;;;;;;;;;26.00;67.10;;;;;;5063490;28;19995;-91
2022/05/26 09:04:25;;;;;;;;;;;26.20;67.50;;;;;;5066874;28;19945;-91
2022/05/26 09:15:09;;;;;;;;;;;26.80;64.50;;;;;;5070922;28;19975;-91
2022/05/26 09:17:35;;;;;;;;;;;26.90;64.50;;;;;;5066385;28;19946;-91
2022/05/26 09:20:04;;;;;;;;;;;26.80;64.60;;;;;;5070319;28;19946;-91
2022/05/26 09:22:31;;;;;;;;;;;26.80;65.30;;;;;;5069561;28;19945;-90
2022/05/26 09:24:58;;;;;;;;;;;26.70;64.60;;;;;;5066337;28;19976;-91
2022/05/26 09:27:26;;;;;;;;;;;26.70;65.10;;;;;;5068497;28;20031;-91
2022/05/26 09:29:52;;;;;;;;;;;26.70;65.80;;;;;;5069927;28;20048;-91
2022/05/26 09:32:18;;;;;;;;;;;26.90;63.30;;;;;;5065164;28;19978;-91
2022/05/26 09:35:00;;;;;;;;;;;27.00;63.70;;;;;;5063557;28;19989;-91
2022/05/26 09:37:46;;;;;;;;;;;27.20;63.40;;;;;;5067087;28;20312;-91
2022/05/26 09:40:14;;;;;;;;;;;27.30;61.80;;;;;;5068342;28;19955;-91
2022/05/26 09:42:44;;;;;;;;;;;27.30;61.40;;;;;;5066408;28;20491;-91
2022/05/26 09:45:14;;;;;;;;;;;27.40;62.70;;;;;;5072524;28;19953;-91
2022/05/26 09:47:46;;;;;;;;;;;27.60;61.70;;;;;;5067185;28;20591;-92
2022/05/26 09:50:36;;;;;;;;;;;27.70;62.60;;;;;;5065231;28;19955;-92
2022/05/26 09:53:05;;;;;;;;;;;27.80;63.90;;;;;;5068729;28;19951;-91
2022/05/26 09:55:41;;;;;;;;;;;28.00;60.50;;;;;;5069705;28;19943;-92
2022/05/26 09:58:30;;;;;;;;;;;28.00;59.80;;;;;;5076566;28;20407;-92
2022/05/26 10:01:00;;;;;;;;;;;27.80;61.10;;;;;;5060488;28;19953;-92
2022/05/26 10:03:58;;;;;;;;;;;27.80;61.10;;;;;;5068022;28;19946;-92
2022/05/26 10:06:35;;;;;;;;;;;27.80;61.10;;;;;;5058844;28;19947;-92
2022/05/26 10:09:07;;;;;;;;;;;28.00;58.90;;;;;;5067307;28;19953;-92
2022/05/26 10:11:36;;;;;;;;;;;27.80;58.50;;;;;;5076465;28;19945;-91
2022/05/26 10:14:02;;;;;;;;;;;27.80;60.00;;;;;;5063647;28;20335;-92
2022/05/26 10:16:41;;;;;;;;;;;27.80;59.70;;;;;;5072453;28;19958;-92
2022/05/26 10:19:24;;;;;;;;;;;27.80;60.80;;;;;;5072561;28;19947;-92
2022/05/26 10:22:00;;;;;;;;;;;27.90;59.90;;;;;;5073055;28;19975;-92
2022/05/26 10:24:38;;;;;;;;;;;28.00;58.50;;;;;;5072627;28;20048;-91
2022/05/26 10:27:27;;;;;;;;;;;27.90;61.40;;;;;;5059563;28;19950;-92
2022/05/26 10:30:05;;;;;;;;;;;28.00;61.90;;;;;;5052531;28;19943;-92
2022/05/26 10:32:37;;;;;;;;;;;28.10;58.40;;;;;;5054352;28;20025;-92
2022/05/26 10:35:08;;;;;;;;;;;28.10;58.90;;;;;;5056196;28;20362;-92
2022/05/26 10:37:58;;;;;;;;;;;28.20;59.50;;;;;;5056585;28;19953;-92
2022/05/26 10:40:28;;;;;;;;;;;28.50;56.50;;;;;;5056897;28;19943;-92
2022/05/26 10:42:57;;;;;;;;;;;28.50;55.10;;;;;;5056327;28;19959;-92
2022/05/26 10:45:43;;;;;;;;;;;28.60;56.60;;;;;;5056231;28;19936;-92
2022/05/26 10:48:27;;;;;;;;;;;28.70;57.20;;;;;;5056181;28;19990;-92
2022/05/26 10:50:58;;;;;;;;;;;28.90;55.90;;;;;;5056085;28;19967;-92
2022/05/26 10:53:30;;;;;;;;;;;29.40;56.20;;;;;;5056007;28;19961;-92
2022/05/26 10:56:05;;;;;;;;;;;29.50;55.80;;;;;;5056366;28;20007;-92
2022/05/26 10:58:32;;;;;;;;;;;29.70;55.60;;;;;;5055932;28;19972;-92
2022/05/26 11:00:59;;;;;;;;;;;29.90;54.20;;;;;;5056477;28;19943;-92
2022/05/26 11:03:37;;;;;;;;;;;30.00;55.50;;;;;;5054589;28;19947;-92
2022/05/26 11:06:04;;;;;;;;;;;30.20;52.30;;;;;;5055742;28;19992;-92
2022/05/26 11:08:44;;;;;;;;;;;30.40;51.70;;;;;;5055799;28;19936;-92
2022/05/26 11:11:13;;;;;;;;;;;30.50;50.80;;;;;;5055770;28;19957;-92
2022/05/26 11:13:48;;;;;;;;;;;30.50;49.40;;;;;;5055604;28;20028;-92
2022/05/26 11:19:33;;;;;;;;;;;30.60;49.40;;;;;;5075590;28;19944;-92
2022/05/26 11:22:00;;;;;;;;;;;30.50;49.70;;;;;;5066429;28;20425;-92
2022/05/26 11:24:26;;;;;;;;;;;30.30;49.60;;;;;;5075404;28;20037;-92
2022/05/26 11:26:55;;;;;;;;;;;30.40;49.70;;;;;;5065524;28;20440;-92
2022/05/26 11:29:30;;;;;;;;;;;30.50;49.90;;;;;;5055084;28;19940;-92
2022/05/26 11:38:00;;;;;;;;;;;30.50;48.60;;;;;;5026963;28;20412;-92
2022/05/26 11:40:28;;;;;;;;;;;30.40;49.20;;;;;;5062979;28;20292;-92
2022/05/26 11:42:54;;;;;;;;;;;30.50;50.70;;;;;;5066357;28;19950;-92
2022/05/26 11:45:25;;;;;;;;;;;30.50;49.70;;;;;;5054846;28;20295;-92
2022/05/26 11:47:51;;;;;;;;;;;30.40;51.90;;;;;;5073144;28;20009;-92
2022/05/26 11:50:26;;;;;;;;;;;30.20;51.20;;;;;;5069457;28;19953;-92
2022/05/26 11:52:52;;;;;;;;;;;30.20;52.00;;;;;;5068111;28;19951;-92
2022/05/26 11:55:45;;;;;;;;;;;30.40;50.20;;;;;;5066994;28;19953;-92
2022/05/26 11:58:17;;;;;;;;;;;30.70;50.90;;;;;;5070816;28;20386;-92
2022/05/26 12:00:45;;;;;;;;;;;30.90;49.90;;;;;;5074304;28;19945;-92
2022/05/26 12:03:22;;;;;;;;;;;31.20;48.10;;;;;;5068232;28;20310;-92
2022/05/26 12:05:58;;;;;;;;;;;30.80;48.30;;;;;;5063986;28;20392;-92
2022/05/26 12:08:43;;;;;;;;;;;30.90;49.90;;;;;;5074585;28;19941;-92
2022/05/26 12:11:11;;;;;;;;;;;30.80;48.00;;;;;;5070568;28;19955;-92
2022/05/26 12:13:40;;;;;;;;;;;30.70;49.30;;;;;;5067756;28;20462;-92
2022/05/26 12:16:09;;;;;;;;;;;30.60;48.70;;;;;;5065481;28;19953;-93
2022/05/26 12:18:39;;;;;;;;;;;30.40;50.60;;;;;;5071906;28;19940;-92
2022/05/26 12:21:23;;;;;;;;;;;30.40;50.80;;;;;;5068206;28;20424;-92
2022/05/26 12:23:48;;;;;;;;;;;30.30;50.50;;;;;;5070564;28;19961;-92
2022/05/26 12:26:45;;;;;;;;;;;30.40;49.20;;;;;;5066069;28;20424;-92
2022/05/26 12:29:30;;;;;;;;;;;30.40;51.30;;;;;;5072164;28;20476;-91
2022/05/26 12:32:09;;;;;;;;;;;30.30;51.10;;;;;;5065339;28;20390;-92
2022/05/26 12:34:40;;;;;;;;;;;30.40;51.60;;;;;;5071692;28;20420;-92
2022/05/26 12:37:11;;;;;;;;;;;30.40;50.70;;;;;;5069495;28;19948;-91
2022/05/26 12:39:54;;;;;;;;;;;30.00;49.30;;;;;;5072073;28;20042;-91
2022/05/26 12:42:23;;;;;;;;;;;29.60;51.60;;;;;;5075876;28;19961;-92
2022/05/26 12:44:49;;;;;;;;;;;29.50;53.80;;;;;;5067273;28;19996;-91
2022/05/26 12:47:34;;;;;;;;;;;29.60;52.30;;;;;;5069369;28;19945;-92
2022/05/26 12:50:05;;;;;;;;;;;29.70;51.50;;;;;;5069707;28;19976;-92
2022/05/26 12:52:41;;;;;;;;;;;30.10;51.10;;;;;;5070509;28;19952;-92
2022/05/26 12:55:12;;;;;;;;;;;30.40;51.20;;;;;;5066095;28;19965;-92
2022/05/26 12:57:43;;;;;;;;;;;30.40;48.60;;;;;;5068061;28;20038;-92
2022/05/26 13:00:27;;;;;;;;;;;30.20;49.50;;;;;;5071332;28;19942;-91
2022/05/26 13:02:54;;;;;;;;;;;30.60;48.10;;;;;;5069661;28;20050;-92
2022/05/26 13:05:20;;;;;;;;;;;31.10;47.80;;;;;;5074352;28;19948;-92
2022/05/26 13:07:53;;;;;;;;;;;31.20;47.30;;;;;;5072375;28;20000;-92
2022/05/26 13:10:22;;;;;;;;;;;31.30;45.90;;;;;;5066274;28;20048;-92
2022/05/26 13:12:47;;;;;;;;;;;31.20;47.30;;;;;;5073299;28;19993;-92
2022/05/26 13:15:19;;;;;;;;;;;30.90;48.30;;;;;;5063389;28;20454;-91
2022/05/26 13:17:47;;;;;;;;;;;30.40;49.20;;;;;;5072020;28;19952;-92
2022/05/26 13:20:21;;;;;;;;;;;30.20;50.10;;;;;;5069913;28;19954;-92
2022/05/26 13:22:46;;;;;;;;;;;30.00;51.20;;;;;;5071867;28;20056;-92
2022/05/26 13:25:15;;;;;;;;;;;29.80;50.30;;;;;;5070637;28;20036;-92
2022/05/26 13:27:52;;;;;;;;;;;29.60;50.70;;;;;;5071696;28;19946;-91
2022/05/26 13:33:07;;;;;;;;;;;28.50;55.60;;;;;;5075905;22;20461;-91
2022/05/26 13:35:37;;;;;;;;;;;27.90;53.30;;;;;;5065736;28;19954;-91
2022/05/26 13:38:03;;;;;;;;;;;27.60;62.50;;;;;;5067523;28;20473;-92
2022/05/26 13:40:29;;;;;;;;;;;27.20;59.80;;;;;;5071269;28;19945;-91
2022/05/26 13:42:55;;;;;;;;;;;27.20;59.00;;;;;;5071959;28;19949;-91
2022/05/26 13:45:28;;;;;;;;;;;27.00;59.00;;;;;;5062882;28;19953;-91
2022/05/26 13:48:13;;;;;;;;;;;26.90;59.60;;;;;;5058835;28;19979;-92
2022/05/26 13:50:45;;;;;;;;;;;26.70;62.30;;;;;;5053253;28;19951;-92
2022/05/26 13:53:13;;;;;;;;;;;26.50;67.50;;;;;;5065342;28;19973;-92
2022/05/26 13:55:44;;;;;;;;;;;26.30;69.20;;;;;;5066906;28;19960;-92
2022/05/26 13:58:10;;;;;;;;;;;26.30;70.10;;;;;;5072531;28;19943;-92
2022/05/26 14:00:36;;;;;;;;;;;26.20;71.20;;;;;;5070846;28;19968;-92
2022/05/26 14:03:17;;;;;;;;;;;25.90;67.50;;;;;;5066502;28;19950;-91
2022/05/26 14:05:59;;;;;;;;;;;25.80;71.20;;;;;;5067566;28;19958;-92
2022/05/26 14:08:25;;;;;;;;;;;25.50;70.70;;;;;;5072240;28;19943;-91
2022/05/26 14:10:52;;;;;;;;;;;25.30;70.70;;;;;;5070181;28;20286;-91
2022/05/26 14:13:23;;;;;;;;;;;24.90;72.60;;;;;;5073983;28;19966;-91
2022/05/26 14:16:04;;;;;;;;;;;24.50;75.50;;;;;;5062543;28;21070;-91
2022/05/26 14:18:37;;;;;;;;;;;24.20;77.50;;;;;;5076897;28;19947;-91
2022/05/26 14:21:05;;;;;;;;;;;24.00;78.70;;;;;;5074962;28;19950;-92
2022/05/26 14:23:32;;;;;;;;;;;23.90;79.80;;;;;;5065277;28;19965;-91
2022/05/26 14:26:03;;;;;;;;;;;23.80;80.20;;;;;;5054410;28;20425;-91
2022/05/26 14:28:29;;;;;;;;;;;23.60;78.80;;;;;;5057659;28;19983;-91
2022/05/26 14:30:55;;;;;;;;;;;23.40;79.70;;;;;;5059018;28;19944;-91
2022/05/26 14:33:22;;;;;;;;;;;23.20;78.40;;;;;;5051521;28;20049;-91
2022/05/26 14:35:48;;;;;;;;;;;22.90;76.10;;;;;;5062928;28;19946;-91
2022/05/26 14:38:14;;;;;;;;;;;23.10;79.70;;;;;;5050866;28;19946;-91
2022/05/26 14:40:40;;;;;;;;;;;23.30;78.90;;;;;;5056776;28;20427;-91
2022/05/26 14:43:07;;;;;;;;;;;23.40;77.20;;;;;;5055186;28;20226;-91
2022/05/26 14:45:33;;;;;;;;;;;23.30;77.30;;;;;;5055263;28;19957;-91
2022/05/26 14:47:59;;;;;;;;;;;23.50;77.40;;;;;;5050773;28;20043;-91
2022/05/26 14:50:24;;;;;;;;;;;23.60;76.40;;;;;;5052476;28;20434;-91
2022/05/26 14:52:50;;;;;;;;;;;23.70;77.70;;;;;;5052941;28;20000;-91
2022/05/26 14:55:28;;;;;;;;;;;23.70;77.00;;;;;;5059492;28;20432;-91
2022/05/26 14:58:14;;;;;;;;;;;23.80;78.20;;;;;;5055685;28;19961;-92
2022/05/26 15:00:47;;;;;;;;;;;24.00;79.80;;;;;;5061378;28;19984;-91
2022/05/26 15:03:13;;;;;;;;;;;23.80;79.10;;;;;;5058130;28;19945;-92
2022/05/26 15:05:39;;;;;;;;;;;23.70;78.00;;;;;;5052000;28;19958;-91
2022/05/26 15:08:15;;;;;;;;;;;23.60;79.00;;;;;;5059600;28;19957;-91
2022/05/26 15:10:41;;;;;;;;;;;23.30;79.90;;;;;;5053735;28;19980;-91
2022/05/26 15:13:06;;;;;;;;;;;23.30;80.60;;;;;;5051732;28;19990;-91
2022/05/26 15:15:32;;;;;;;;;;;23.30;80.90;;;;;;5057839;28;19947;-91
2022/05/26 15:17:57;;;;;;;;;;;23.40;81.50;;;;;;5056097;28;19955;-91